sensor_id;sensor_type;location;lat;lon;timestamp;temperature;humidity
19945;DHT22;10134;50.952;6.930;2023-02-28T00:01:33;3.00;93.60
19945;DHT22;10134;50.952;6.930;2023-02-28T00:04:01;3.00;93.60
19945;DHT22;10134;50.952;6.930;2023-02-28T00:06:29;3.00;93.60
19945;DHT22;10134;50.952;6.930;2023-02-28T00:08:56;3.10;93.70
19945;DHT22;10134;50.952;6.930;2023-02-28T00:11:23;3.00;93.60
19945;DHT22;10134;50.952;6.930;2023-02-28T00:13:51;3.00;93.60
19945;DHT22;10134;50.952;6.930;2023-02-28T00:16:21;3.00;93.60
19945;DHT22;10134;50.952;6.930;2023-02-28T00:18:50;3.00;93.60
19945;DHT22;10134;50.952;6.930;2023-02-28T00:21:18;3.00;93.70
19945;DHT22;10134;50.952;6.930;2023-02-28T00:23:45;2.90;93.80
19945;DHT22;10134;50.952;6.930;2023-02-28T00:26:13;2.90;94.00
19945;DHT22;10134;50.952;6.930;2023-02-28T00:28:44;2.90;94.10
19945;DHT22;10134;50.952;6.930;2023-02-28T00:31:11;2.80;94.20
19945;DHT22;10134;50.952;6.930;2023-02-28T00:33:39;2.80;94.30
19945;DHT22;10134;50.952;6.930;2023-02-28T00:36:09;2.70;94.40
19945;DHT22;10134;50.952;6.930;2023-02-28T00:38:38;2.60;94.50
19945;DHT22;10134;50.952;6.930;2023-02-28T00:41:06;2.60;94.80
19945;DHT22;10134;50.952;6.930;2023-02-28T00:43:35;2.60;94.90
19945;DHT22;10134;50.952;6.930;2023-02-28T00:46:03;2.60;95.00
19945;DHT22;10134;50.952;6.930;2023-02-28T00:48:31;2.60;95.20
19945;DHT22;10134;50.952;6.930;2023-02-28T00:50:58;2.60;95.30
19945;DHT22;10134;50.952;6.930;2023-02-28T00:53:26;2.60;95.20
19945;DHT22;10134;50.952;6.930;2023-02-28T00:55:53;2.60;95.30
19945;DHT22;10134;50.952;6.930;2023-02-28T00:58:21;2.60;95.30
19945;DHT22;10134;50.952;6.930;2023-02-28T01:00:48;2.60;95.40
19945;DHT22;10134;50.952;6.930;2023-02-28T01:03:18;2.60;95.50
19945;DHT22;10134;50.952;6.930;2023-02-28T01:05:46;2.70;95.50
19945;DHT22;10134;50.952;6.930;2023-02-28T01:08:14;2.60;95.50
19945;DHT22;10134;50.952;6.930;2023-02-28T01:10:42;2.70;95.50
19945;DHT22;10134;50.952;6.930;2023-02-28T01:13:10;2.70;95.60
19945;DHT22;10134;50.952;6.930;2023-02-28T01:15:48;2.60;95.60
19945;DHT22;10134;50.952;6.930;2023-02-28T01:18:16;2.60;95.60
19945;DHT22;10134;50.952;6.930;2023-02-28T01:20:43;2.60;95.60
19945;DHT22;10134;50.952;6.930;2023-02-28T01:23:11;2.60;95.70
19945;DHT22;10134;50.952;6.930;2023-02-28T01:25:38;2.60;95.70
19945;DHT22;10134;50.952;6.930;2023-02-28T01:28:06;2.60;95.70
19945;DHT22;10134;50.952;6.930;2023-02-28T01:30:36;2.60;95.70
19945;DHT22;10134;50.952;6.930;2023-02-28T01:33:03;2.60;95.70
19945;DHT22;10134;50.952;6.930;2023-02-28T01:35:35;2.60;95.80
19945;DHT22;10134;50.952;6.930;2023-02-28T01:38:03;2.50;95.90
19945;DHT22;10134;50.952;6.930;2023-02-28T01:40:47;2.50;95.90
19945;DHT22;10134;50.952;6.930;2023-02-28T01:43:27;2.60;95.80
19945;DHT22;10134;50.952;6.930;2023-02-28T01:45:56;2.50;95.80
19945;DHT22;10134;50.952;6.930;2023-02-28T01:48:28;2.50;95.90
19945;DHT22;10134;50.952;6.930;2023-02-28T01:50:58;2.50;95.90
19945;DHT22;10134;50.952;6.930;2023-02-28T01:53:44;2.50;96.10
19945;DHT22;10134;50.952;6.930;2023-02-28T01:56:14;2.40;96.20
19945;DHT22;10134;50.952;6.930;2023-02-28T01:58:51;2.40;96.20
19945;DHT22;10134;50.952;6.930;2023-02-28T02:01:21;2.40;96.30
19945;DHT22;10134;50.952;6.930;2023-02-28T02:03:58;2.40;96.30
19945;DHT22;10134;50.952;6.930;2023-02-28T02:06:29;2.40;96.40
19945;DHT22;10134;50.952;6.930;2023-02-28T02:08:57;2.40;96.40
19945;DHT22;10134;50.952;6.930;2023-02-28T02:11:24;2.40;96.40
19945;DHT22;10134;50.952;6.930;2023-02-28T02:25:35;2.30;96.60
19945;DHT22;10134;50.952;6.930;2023-02-28T02:31:27;2.40;96.60
19945;DHT22;10134;50.952;6.930;2023-02-28T02:34:15;2.40;96.70
19945;DHT22;10134;50.952;6.930;2023-02-28T02:40:00;2.30;96.50
19945;DHT22;10134;50.952;6.930;2023-02-28T02:42:44;2.30;96.50
19945;DHT22;10134;50.952;6.930;2023-02-28T02:47:47;2.30;96.50
19945;DHT22;10134;50.952;6.930;2023-02-28T02:50:24;2.30;96.40
19945;DHT22;10134;50.952;6.930;2023-02-28T02:52:56;2.30;96.40
19945;DHT22;10134;50.952;6.930;2023-02-28T02:55:25;2.20;96.30
19945;DHT22;10134;50.952;6.930;2023-02-28T02:57:59;2.20;96.20
19945;DHT22;10134;50.952;6.930;2023-02-28T03:01:02;2.20;96.20
19945;DHT22;10134;50.952;6.930;2023-02-28T03:03:33;2.20;96.10
19945;DHT22;10134;50.952;6.930;2023-02-28T03:06:02;2.20;96.10
19945;DHT22;10134;50.952;6.930;2023-02-28T03:08:36;2.10;96.00
19945;DHT22;10134;50.952;6.930;2023-02-28T03:11:06;2.10;96.00
19945;DHT22;10134;50.952;6.930;2023-02-28T03:13:51;2.10;95.90
19945;DHT22;10134;50.952;6.930;2023-02-28T03:19:18;2.10;95.60
19945;DHT22;10134;50.952;6.930;2023-02-28T03:22:12;2.10;95.50
19945;DHT22;10134;50.952;6.930;2023-02-28T03:24:54;2.00;95.20
19945;DHT22;10134;50.952;6.930;2023-02-28T03:27:42;2.00;95.10
19945;DHT22;10134;50.952;6.930;2023-02-28T03:30:29;2.00;95.00
19945;DHT22;10134;50.952;6.930;2023-02-28T03:35:38;1.90;94.90
19945;DHT22;10134;50.952;6.930;2023-02-28T03:38:18;1.90;94.90
19945;DHT22;10134;50.952;6.930;2023-02-28T03:40:51;1.80;94.90
19945;DHT22;10134;50.952;6.930;2023-02-28T03:43:28;1.80;94.90
19945;DHT22;10134;50.952;6.930;2023-02-28T03:45:58;1.90;95.00
19945;DHT22;10134;50.952;6.930;2023-02-28T03:48:44;1.80;95.00
19945;DHT22;10134;50.952;6.930;2023-02-28T03:51:17;1.80;95.00
19945;DHT22;10134;50.952;6.930;2023-02-28T03:53:56;1.80;95.00
19945;DHT22;10134;50.952;6.930;2023-02-28T03:56:33;1.80;95.10
19945;DHT22;10134;50.952;6.930;2023-02-28T03:59:24;1.80;95.50
19945;DHT22;10134;50.952;6.930;2023-02-28T04:01:54;1.80;95.30
19945;DHT22;10134;50.952;6.930;2023-02-28T04:04:22;1.80;95.50
19945;DHT22;10134;50.952;6.930;2023-02-28T04:06:52;1.80;95.60
19945;DHT22;10134;50.952;6.930;2023-02-28T04:09:27;1.80;95.60
19945;DHT22;10134;50.952;6.930;2023-02-28T04:11:55;1.80;95.80
19945;DHT22;10134;50.952;6.930;2023-02-28T04:14:26;1.70;96.30
19945;DHT22;10134;50.952;6.930;2023-02-28T04:16:54;1.70;96.50
19945;DHT22;10134;50.952;6.930;2023-02-28T04:19:27;1.70;96.80
19945;DHT22;10134;50.952;6.930;2023-02-28T04:21:55;1.70;96.80
19945;DHT22;10134;50.952;6.930;2023-02-28T04:24:25;1.60;97.00
19945;DHT22;10134;50.952;6.930;2023-02-28T04:26:54;1.60;97.00
19945;DHT22;10134;50.952;6.930;2023-02-28T04:29:28;1.70;97.20
19945;DHT22;10134;50.952;6.930;2023-02-28T04:31:56;1.60;97.30
19945;DHT22;10134;50.952;6.930;2023-02-28T04:34:31;1.60;97.40
19945;DHT22;10134;50.952;6.930;2023-02-28T04:36:59;1.60;97.50
19945;DHT22;10134;50.952;6.930;2023-02-28T04:39:43;1.60;97.50
19945;DHT22;10134;50.952;6.930;2023-02-28T04:42:11;1.60;97.70
19945;DHT22;10134;50.952;6.930;2023-02-28T04:44:39;1.60;97.60
19945;DHT22;10134;50.952;6.930;2023-02-28T04:47:06;1.60;97.60
19945;DHT22;10134;50.952;6.930;2023-02-28T04:49:35;1.70;97.50
19945;DHT22;10134;50.952;6.930;2023-02-28T04:52:02;1.70;97.40
19945;DHT22;10134;50.952;6.930;2023-02-28T04:54:29;1.70;97.40
19945;DHT22;10134;50.952;6.930;2023-02-28T04:56:57;1.70;97.30
19945;DHT22;10134;50.952;6.930;2023-02-28T04:59:24;1.70;97.20
19945;DHT22;10134;50.952;6.930;2023-02-28T05:01:51;1.70;97.10
19945;DHT22;10134;50.952;6.930;2023-02-28T05:04:19;1.70;97.00
19945;DHT22;10134;50.952;6.930;2023-02-28T05:06:46;1.70;96.90
19945;DHT22;10134;50.952;6.930;2023-02-28T05:09:13;1.70;96.80
19945;DHT22;10134;50.952;6.930;2023-02-28T05:11:41;1.70;96.70
19945;DHT22;10134;50.952;6.930;2023-02-28T05:14:13;1.70;96.70
19945;DHT22;10134;50.952;6.930;2023-02-28T05:16:41;1.70;96.60
19945;DHT22;10134;50.952;6.930;2023-02-28T05:19:09;1.60;96.60
19945;DHT22;10134;50.952;6.930;2023-02-28T05:21:38;1.60;96.70
19945;DHT22;10134;50.952;6.930;2023-02-28T05:24:11;1.50;97.00
19945;DHT22;10134;50.952;6.930;2023-02-28T05:26:41;1.50;96.80
19945;DHT22;10134;50.952;6.930;2023-02-28T05:29:09;1.50;96.80
19945;DHT22;10134;50.952;6.930;2023-02-28T05:31:38;1.50;96.80
19945;DHT22;10134;50.952;6.930;2023-02-28T05:34:05;1.40;96.80
19945;DHT22;10134;50.952;6.930;2023-02-28T05:36:33;1.40;96.80
19945;DHT22;10134;50.952;6.930;2023-02-28T05:39:00;1.40;96.80
19945;DHT22;10134;50.952;6.930;2023-02-28T05:41:28;1.50;96.80
19945;DHT22;10134;50.952;6.930;2023-02-28T05:43:57;1.50;96.80
19945;DHT22;10134;50.952;6.930;2023-02-28T05:46:24;1.50;97.00
19945;DHT22;10134;50.952;6.930;2023-02-28T05:48:52;1.50;96.60
19945;DHT22;10134;50.952;6.930;2023-02-28T05:51:19;1.50;96.40
19945;DHT22;10134;50.952;6.930;2023-02-28T05:53:46;1.50;96.20
19945;DHT22;10134;50.952;6.930;2023-02-28T05:56:15;1.50;96.10
19945;DHT22;10134;50.952;6.930;2023-02-28T05:58:42;1.50;95.90
19945;DHT22;10134;50.952;6.930;2023-02-28T06:01:35;1.50;95.90
19945;DHT22;10134;50.952;6.930;2023-02-28T06:04:04;1.40;95.60
19945;DHT22;10134;50.952;6.930;2023-02-28T06:06:32;1.50;95.50
19945;DHT22;10134;50.952;6.930;2023-02-28T06:09:06;1.50;95.50
19945;DHT22;10134;50.952;6.930;2023-02-28T06:11:33;1.50;95.40
19945;DHT22;10134;50.952;6.930;2023-02-28T06:14:01;1.50;95.20
19945;DHT22;10134;50.952;6.930;2023-02-28T06:16:31;1.50;95.20
19945;DHT22;10134;50.952;6.930;2023-02-28T06:19:00;1.50;95.00
19945;DHT22;10134;50.952;6.930;2023-02-28T06:21:29;1.50;95.10
19945;DHT22;10134;50.952;6.930;2023-02-28T06:23:57;1.50;94.90
19945;DHT22;10134;50.952;6.930;2023-02-28T06:26:25;1.50;94.90
19945;DHT22;10134;50.952;6.930;2023-02-28T06:28:53;1.50;94.90
19945;DHT22;10134;50.952;6.930;2023-02-28T06:31:20;1.50;94.70
19945;DHT22;10134;50.952;6.930;2023-02-28T06:33:49;1.50;94.70
19945;DHT22;10134;50.952;6.930;2023-02-28T06:36:17;1.50;94.70
19945;DHT22;10134;50.952;6.930;2023-02-28T06:38:45;1.50;94.80
19945;DHT22;10134;50.952;6.930;2023-02-28T06:41:12;1.50;94.60
19945;DHT22;10134;50.952;6.930;2023-02-28T06:43:41;1.50;94.70
19945;DHT22;10134;50.952;6.930;2023-02-28T06:46:11;1.50;94.90
19945;DHT22;10134;50.952;6.930;2023-02-28T06:48:42;1.50;94.60
19945;DHT22;10134;50.952;6.930;2023-02-28T06:51:15;1.60;94.60
19945;DHT22;10134;50.952;6.930;2023-02-28T06:53:43;1.60;94.60
19945;DHT22;10134;50.952;6.930;2023-02-28T06:56:13;1.60;94.50
19945;DHT22;10134;50.952;6.930;2023-02-28T06:58:41;1.60;94.30
19945;DHT22;10134;50.952;6.930;2023-02-28T07:01:08;1.60;94.40
19945;DHT22;10134;50.952;6.930;2023-02-28T07:03:36;1.70;94.30
19945;DHT22;10134;50.952;6.930;2023-02-28T07:06:05;1.70;94.40
19945;DHT22;10134;50.952;6.930;2023-02-28T07:08:34;1.70;94.20
19945;DHT22;10134;50.952;6.930;2023-02-28T07:11:02;1.70;94.10
19945;DHT22;10134;50.952;6.930;2023-02-28T07:13:30;1.80;93.90
19945;DHT22;10134;50.952;6.930;2023-02-28T07:16:05;1.80;93.70
19945;DHT22;10134;50.952;6.930;2023-02-28T07:18:32;1.80;93.40
19945;DHT22;10134;50.952;6.930;2023-02-28T07:21:06;1.90;93.40
19945;DHT22;10134;50.952;6.930;2023-02-28T07:23:34;1.90;93.10
19945;DHT22;10134;50.952;6.930;2023-02-28T07:26:01;2.00;93.10
19945;DHT22;10134;50.952;6.930;2023-02-28T07:28:28;2.00;92.90
19945;DHT22;10134;50.952;6.930;2023-02-28T07:30:56;2.00;92.50
19945;DHT22;10134;50.952;6.930;2023-02-28T07:33:23;2.00;92.40
19945;DHT22;10134;50.952;6.930;2023-02-28T07:35:51;2.10;92.20
19945;DHT22;10134;50.952;6.930;2023-02-28T07:38:18;2.10;91.90
19945;DHT22;10134;50.952;6.930;2023-02-28T07:40:45;2.10;91.80
19945;DHT22;10134;50.952;6.930;2023-02-28T07:43:13;2.20;91.50
19945;DHT22;10134;50.952;6.930;2023-02-28T07:45:40;2.20;91.60
19945;DHT22;10134;50.952;6.930;2023-02-28T07:48:07;2.30;91.50
19945;DHT22;10134;50.952;6.930;2023-02-28T07:50:37;2.30;91.30
19945;DHT22;10134;50.952;6.930;2023-02-28T07:53:04;2.30;90.90
19945;DHT22;10134;50.952;6.930;2023-02-28T07:55:32;2.40;90.60
19945;DHT22;10134;50.952;6.930;2023-02-28T07:57:59;2.40;90.30
19945;DHT22;10134;50.952;6.930;2023-02-28T08:00:27;2.40;89.60
19945;DHT22;10134;50.952;6.930;2023-02-28T08:02:56;2.50;90.00
19945;DHT22;10134;50.952;6.930;2023-02-28T08:05:23;2.50;89.60
19945;DHT22;10134;50.952;6.930;2023-02-28T08:07:50;2.50;88.90
19945;DHT22;10134;50.952;6.930;2023-02-28T08:10:17;2.60;88.50
19945;DHT22;10134;50.952;6.930;2023-02-28T08:12:45;2.60;87.90
19945;DHT22;10134;50.952;6.930;2023-02-28T08:15:12;2.70;87.80
19945;DHT22;10134;50.952;6.930;2023-02-28T08:17:39;2.80;87.60
19945;DHT22;10134;50.952;6.930;2023-02-28T08:20:07;2.80;86.60
19945;DHT22;10134;50.952;6.930;2023-02-28T08:22:36;2.80;86.00
19945;DHT22;10134;50.952;6.930;2023-02-28T08:25:03;2.90;85.70
19945;DHT22;10134;50.952;6.930;2023-02-28T08:27:31;2.90;84.90
19945;DHT22;10134;50.952;6.930;2023-02-28T08:29:58;3.00;84.30
19945;DHT22;10134;50.952;6.930;2023-02-28T08:32:25;3.10;84.10
19945;DHT22;10134;50.952;6.930;2023-02-28T08:34:56;3.10;83.80
19945;DHT22;10134;50.952;6.930;2023-02-28T08:37:24;3.20;83.40
19945;DHT22;10134;50.952;6.930;2023-02-28T08:39:51;3.20;82.50
19945;DHT22;10134;50.952;6.930;2023-02-28T08:42:23;3.30;81.40
19945;DHT22;10134;50.952;6.930;2023-02-28T08:44:50;3.30;80.70
19945;DHT22;10134;50.952;6.930;2023-02-28T08:47:18;3.40;80.10
19945;DHT22;10134;50.952;6.930;2023-02-28T08:49:46;3.40;79.50
19945;DHT22;10134;50.952;6.930;2023-02-28T08:52:13;3.50;79.50
19945;DHT22;10134;50.952;6.930;2023-02-28T08:54:40;3.50;78.90
19945;DHT22;10134;50.952;6.930;2023-02-28T08:57:08;3.50;78.00
19945;DHT22;10134;50.952;6.930;2023-02-28T08:59:35;3.60;77.30
19945;DHT22;10134;50.952;6.930;2023-02-28T09:02:02;3.60;76.90
19945;DHT22;10134;50.952;6.930;2023-02-28T09:04:30;3.70;76.10
19945;DHT22;10134;50.952;6.930;2023-02-28T09:07:00;3.70;75.40
19945;DHT22;10134;50.952;6.930;2023-02-28T09:09:27;3.80;74.50
19945;DHT22;10134;50.952;6.930;2023-02-28T09:11:56;3.80;74.80
19945;DHT22;10134;50.952;6.930;2023-02-28T09:14:23;3.90;74.40
19945;DHT22;10134;50.952;6.930;2023-02-28T09:16:51;3.90;73.20
19945;DHT22;10134;50.952;6.930;2023-02-28T09:19:19;4.00;72.50
19945;DHT22;10134;50.952;6.930;2023-02-28T09:21:47;4.00;71.80
19945;DHT22;10134;50.952;6.930;2023-02-28T09:24:14;4.00;71.90
19945;DHT22;10134;50.952;6.930;2023-02-28T09:26:42;4.00;71.30
19945;DHT22;10134;50.952;6.930;2023-02-28T09:29:22;4.10;71.50
19945;DHT22;10134;50.952;6.930;2023-02-28T09:31:49;4.10;71.80
19945;DHT22;10134;50.952;6.930;2023-02-28T09:34:17;4.10;71.40
19945;DHT22;10134;50.952;6.930;2023-02-28T09:36:44;4.20;71.30
19945;DHT22;10134;50.952;6.930;2023-02-28T09:39:13;4.20;71.30
19945;DHT22;10134;50.952;6.930;2023-02-28T09:41:44;4.30;71.40
19945;DHT22;10134;50.952;6.930;2023-02-28T09:44:37;4.30;71.40
19945;DHT22;10134;50.952;6.930;2023-02-28T09:47:20;4.40;71.00
19945;DHT22;10134;50.952;6.930;2023-02-28T09:49:49;4.50;70.80
19945;DHT22;10134;50.952;6.930;2023-02-28T09:52:23;4.50;70.40
19945;DHT22;10134;50.952;6.930;2023-02-28T09:54:53;4.50;69.90
19945;DHT22;10134;50.952;6.930;2023-02-28T09:57:33;4.60;69.50
19945;DHT22;10134;50.952;6.930;2023-02-28T10:00:13;4.60;68.80
19945;DHT22;10134;50.952;6.930;2023-02-28T10:05:38;4.70;68.40
19945;DHT22;10134;50.952;6.930;2023-02-28T10:11:15;4.80;68.50
19945;DHT22;10134;50.952;6.930;2023-02-28T10:16:25;4.90;67.60
19945;DHT22;10134;50.952;6.930;2023-02-28T10:19:12;4.90;66.90
19945;DHT22;10134;50.952;6.930;2023-02-28T10:21:59;4.90;66.80
19945;DHT22;10134;50.952;6.930;2023-02-28T10:24:32;5.00;66.50
19945;DHT22;10134;50.952;6.930;2023-02-28T10:27:16;5.00;66.70
19945;DHT22;10134;50.952;6.930;2023-02-28T10:29:54;5.00;66.90
19945;DHT22;10134;50.952;6.930;2023-02-28T10:32:25;5.10;67.00
19945;DHT22;10134;50.952;6.930;2023-02-28T10:37:37;5.10;66.30
19945;DHT22;10134;50.952;6.930;2023-02-28T10:40:28;5.20;66.30
19945;DHT22;10134;50.952;6.930;2023-02-28T10:45:34;5.30;66.00
19945;DHT22;10134;50.952;6.930;2023-02-28T10:48:32;5.30;65.90
19945;DHT22;10134;50.952;6.930;2023-02-28T10:51:01;5.30;65.80
19945;DHT22;10134;50.952;6.930;2023-02-28T10:53:38;5.30;65.70
19945;DHT22;10134;50.952;6.930;2023-02-28T10:56:26;5.30;66.20
19945;DHT22;10134;50.952;6.930;2023-02-28T10:59:08;5.30;65.70
19945;DHT22;10134;50.952;6.930;2023-02-28T11:01:48;5.40;65.40
19945;DHT22;10134;50.952;6.930;2023-02-28T11:09:34;5.40;65.50
19945;DHT22;10134;50.952;6.930;2023-02-28T11:12:05;5.40;65.40
19945;DHT22;10134;50.952;6.930;2023-02-28T11:14:51;5.50;65.50
19945;DHT22;10134;50.952;6.930;2023-02-28T11:17:22;5.50;66.00
19945;DHT22;10134;50.952;6.930;2023-02-28T11:19:52;5.60;65.80
19945;DHT22;10134;50.952;6.930;2023-02-28T11:22:23;5.60;65.40
19945;DHT22;10134;50.952;6.930;2023-02-28T11:24:54;5.60;65.50
19945;DHT22;10134;50.952;6.930;2023-02-28T11:29:57;5.80;65.70
19945;DHT22;10134;50.952;6.930;2023-02-28T11:32:26;5.80;65.80
19945;DHT22;10134;50.952;6.930;2023-02-28T11:37:39;5.90;66.80
19945;DHT22;10134;50.952;6.930;2023-02-28T11:40:21;5.90;66.70
19945;DHT22;10134;50.952;6.930;2023-02-28T11:42:57;6.00;66.20
19945;DHT22;10134;50.952;6.930;2023-02-28T11:56:36;6.20;66.20
19945;DHT22;10134;50.952;6.930;2023-02-28T12:02:23;6.30;66.00
19945;DHT22;10134;50.952;6.930;2023-02-28T12:08:02;6.40;65.80
19945;DHT22;10134;50.952;6.930;2023-02-28T12:10:50;6.50;66.80
19945;DHT22;10134;50.952;6.930;2023-02-28T12:13:29;6.60;65.90
19945;DHT22;10134;50.952;6.930;2023-02-28T12:17:02;6.70;65.10
19945;DHT22;10134;50.952;6.930;2023-02-28T12:24:44;6.90;64.60
19945;DHT22;10134;50.952;6.930;2023-02-28T12:27:15;6.90;65.00
19945;DHT22;10134;50.952;6.930;2023-02-28T12:29:56;6.90;64.20
19945;DHT22;10134;50.952;6.930;2023-02-28T12:32:37;6.90;63.60
19945;DHT22;10134;50.952;6.930;2023-02-28T12:35:22;6.80;63.10
19945;DHT22;10134;50.952;6.930;2023-02-28T12:37:59;6.80;63.20
19945;DHT22;10134;50.952;6.930;2023-02-28T12:40:42;6.90;63.10
19945;DHT22;10134;50.952;6.930;2023-02-28T12:43:12;6.90;62.90
19945;DHT22;10134;50.952;6.930;2023-02-28T12:46:02;6.90;63.00
19945;DHT22;10134;50.952;6.930;2023-02-28T12:48:44;7.00;62.80
19945;DHT22;10134;50.952;6.930;2023-02-28T12:51:16;7.00;62.50
19945;DHT22;10134;50.952;6.930;2023-02-28T12:59:13;7.00;62.50
19945;DHT22;10134;50.952;6.930;2023-02-28T13:02:02;7.00;62.70
19945;DHT22;10134;50.952;6.930;2023-02-28T13:04:53;7.00;62.60
19945;DHT22;10134;50.952;6.930;2023-02-28T13:10:19;7.00;62.30
19945;DHT22;10134;50.952;6.930;2023-02-28T13:12:52;7.00;62.30
19945;DHT22;10134;50.952;6.930;2023-02-28T13:15:23;7.00;62.30
19945;DHT22;10134;50.952;6.930;2023-02-28T13:17:54;7.00;62.60
19945;DHT22;10134;50.952;6.930;2023-02-28T13:20:37;7.00;62.20
19945;DHT22;10134;50.952;6.930;2023-02-28T13:23:41;7.10;62.60
19945;DHT22;10134;50.952;6.930;2023-02-28T13:31:31;7.20;62.40
19945;DHT22;10134;50.952;6.930;2023-02-28T13:36:30;7.20;62.60
19945;DHT22;10134;50.952;6.930;2023-02-28T13:39:03;7.20;62.70
19945;DHT22;10134;50.952;6.930;2023-02-28T13:41:47;7.20;62.20
19945;DHT22;10134;50.952;6.930;2023-02-28T13:44:17;7.30;61.40
19945;DHT22;10134;50.952;6.930;2023-02-28T14:05:38;7.60;60.20
19945;DHT22;10134;50.952;6.930;2023-02-28T14:08:12;7.60;60.20
19945;DHT22;10134;50.952;6.930;2023-02-28T14:10:45;7.70;60.30
19945;DHT22;10134;50.952;6.930;2023-02-28T14:13:41;7.70;60.50
19945;DHT22;10134;50.952;6.930;2023-02-28T14:16:26;7.70;60.30
19945;DHT22;10134;50.952;6.930;2023-02-28T14:19:03;7.70;60.40
19945;DHT22;10134;50.952;6.930;2023-02-28T14:21:39;7.70;60.50
19945;DHT22;10134;50.952;6.930;2023-02-28T14:24:22;7.80;60.80
19945;DHT22;10134;50.952;6.930;2023-02-28T14:37:41;7.90;61.30
19945;DHT22;10134;50.952;6.930;2023-02-28T14:40:27;7.90;61.10
19945;DHT22;10134;50.952;6.930;2023-02-28T14:43:02;8.00;61.20
19945;DHT22;10134;50.952;6.930;2023-02-28T14:45:32;8.00;61.40
19945;DHT22;10134;50.952;6.930;2023-02-28T14:48:01;8.00;61.20
19945;DHT22;10134;50.952;6.930;2023-02-28T14:50:34;8.00;61.10
19945;DHT22;10134;50.952;6.930;2023-02-28T14:53:02;8.00;61.00
19945;DHT22;10134;50.952;6.930;2023-02-28T14:55:36;8.00;61.00
19945;DHT22;10134;50.952;6.930;2023-02-28T14:58:06;8.00;61.00
19945;DHT22;10134;50.952;6.930;2023-02-28T15:00:35;7.90;60.80
19945;DHT22;10134;50.952;6.930;2023-02-28T15:03:20;7.90;60.50
19945;DHT22;10134;50.952;6.930;2023-02-28T15:05:57;7.90;60.20
19945;DHT22;10134;50.952;6.930;2023-02-28T15:08:26;7.90;60.10
19945;DHT22;10134;50.952;6.930;2023-02-28T15:10:57;7.90;60.70
19945;DHT22;10134;50.952;6.930;2023-02-28T15:16:22;7.80;60.00
19945;DHT22;10134;50.952;6.930;2023-02-28T15:18:54;7.80;59.60
19945;DHT22;10134;50.952;6.930;2023-02-28T15:21:32;7.80;59.80
19945;DHT22;10134;50.952;6.930;2023-02-28T15:24:03;7.70;59.70
19945;DHT22;10134;50.952;6.930;2023-02-28T15:26:35;7.70;60.00
19945;DHT22;10134;50.952;6.930;2023-02-28T15:29:07;7.70;60.30
19945;DHT22;10134;50.952;6.930;2023-02-28T15:31:40;7.70;60.50
19945;DHT22;10134;50.952;6.930;2023-02-28T15:34:35;7.70;60.70
19945;DHT22;10134;50.952;6.930;2023-02-28T15:40:22;7.70;60.40
19945;DHT22;10134;50.952;6.930;2023-02-28T15:43:14;7.60;60.20
19945;DHT22;10134;50.952;6.930;2023-02-28T15:45:48;7.60;60.40
19945;DHT22;10134;50.952;6.930;2023-02-28T15:48:22;7.60;60.70
19945;DHT22;10134;50.952;6.930;2023-02-28T15:53:54;7.50;60.90
19945;DHT22;10134;50.952;6.930;2023-02-28T15:56:29;7.50;61.00
19945;DHT22;10134;50.952;6.930;2023-02-28T15:59:03;7.50;60.90
19945;DHT22;10134;50.952;6.930;2023-02-28T16:01:36;7.50;61.00
19945;DHT22;10134;50.952;6.930;2023-02-28T16:04:06;7.50;61.10
19945;DHT22;10134;50.952;6.930;2023-02-28T16:06:42;7.50;61.20
19945;DHT22;10134;50.952;6.930;2023-02-28T16:09:15;7.50;61.50
19945;DHT22;10134;50.952;6.930;2023-02-28T16:11:47;7.40;61.50
19945;DHT22;10134;50.952;6.930;2023-02-28T16:14:21;7.40;61.80
19945;DHT22;10134;50.952;6.930;2023-02-28T16:16:56;7.40;61.90
19945;DHT22;10134;50.952;6.930;2023-02-28T16:19:24;7.40;62.00
19945;DHT22;10134;50.952;6.930;2023-02-28T16:21:51;7.40;62.10
19945;DHT22;10134;50.952;6.930;2023-02-28T16:24:18;7.40;62.20
19945;DHT22;10134;50.952;6.930;2023-02-28T16:26:48;7.30;62.10
19945;DHT22;10134;50.952;6.930;2023-02-28T16:29:29;7.30;62.20
19945;DHT22;10134;50.952;6.930;2023-02-28T16:31:58;7.30;62.20
19945;DHT22;10134;50.952;6.930;2023-02-28T16:34:27;7.30;62.20
19945;DHT22;10134;50.952;6.930;2023-02-28T16:36:54;7.20;62.30
19945;DHT22;10134;50.952;6.930;2023-02-28T16:39:21;7.20;62.30
19945;DHT22;10134;50.952;6.930;2023-02-28T16:41:50;7.20;62.50
19945;DHT22;10134;50.952;6.930;2023-02-28T16:44:33;7.10;62.40
19945;DHT22;10134;50.952;6.930;2023-02-28T16:47:02;7.10;62.60
19945;DHT22;10134;50.952;6.930;2023-02-28T16:49:29;7.10;62.60
19945;DHT22;10134;50.952;6.930;2023-02-28T16:51:57;7.00;62.80
19945;DHT22;10134;50.952;6.930;2023-02-28T16:54:24;7.00;63.00
19945;DHT22;10134;50.952;6.930;2023-02-28T16:56:52;7.00;63.10
19945;DHT22;10134;50.952;6.930;2023-02-28T16:59:23;6.90;63.00
19945;DHT22;10134;50.952;6.930;2023-02-28T17:01:51;6.90;63.20
19945;DHT22;10134;50.952;6.930;2023-02-28T17:04:19;6.80;63.40
19945;DHT22;10134;50.952;6.930;2023-02-28T17:06:46;6.80;63.90
19945;DHT22;10134;50.952;6.930;2023-02-28T17:09:19;6.80;64.10
19945;DHT22;10134;50.952;6.930;2023-02-28T17:11:50;6.70;64.10
19945;DHT22;10134;50.952;6.930;2023-02-28T17:14:17;6.70;64.20
19945;DHT22;10134;50.952;6.930;2023-02-28T17:16:45;6.60;64.30
19945;DHT22;10134;50.952;6.930;2023-02-28T17:19:15;6.60;64.40
19945;DHT22;10134;50.952;6.930;2023-02-28T17:21:43;6.60;64.50
19945;DHT22;10134;50.952;6.930;2023-02-28T17:24:10;6.60;64.80
19945;DHT22;10134;50.952;6.930;2023-02-28T17:26:56;6.60;65.10
19945;DHT22;10134;50.952;6.930;2023-02-28T17:29:23;6.50;65.00
19945;DHT22;10134;50.952;6.930;2023-02-28T17:31:51;6.50;65.00
19945;DHT22;10134;50.952;6.930;2023-02-28T17:34:19;6.50;65.10
19945;DHT22;10134;50.952;6.930;2023-02-28T17:36:48;6.50;65.30
19945;DHT22;10134;50.952;6.930;2023-02-28T17:39:17;6.40;65.40
19945;DHT22;10134;50.952;6.930;2023-02-28T17:41:52;6.40;65.60
19945;DHT22;10134;50.952;6.930;2023-02-28T17:44:20;6.40;65.70
19945;DHT22;10134;50.952;6.930;2023-02-28T17:46:48;6.40;65.80
19945;DHT22;10134;50.952;6.930;2023-02-28T17:49:17;6.40;65.90
19945;DHT22;10134;50.952;6.930;2023-02-28T17:51:45;6.40;66.10
19945;DHT22;10134;50.952;6.930;2023-02-28T17:54:13;6.40;66.10
19945;DHT22;10134;50.952;6.930;2023-02-28T17:56:41;6.30;66.00
19945;DHT22;10134;50.952;6.930;2023-02-28T17:59:10;6.30;66.10
19945;DHT22;10134;50.952;6.930;2023-02-28T18:01:39;6.30;66.30
19945;DHT22;10134;50.952;6.930;2023-02-28T18:04:06;6.20;66.40
19945;DHT22;10134;50.952;6.930;2023-02-28T18:06:37;6.20;66.80
19945;DHT22;10134;50.952;6.930;2023-02-28T18:09:23;6.20;67.20
19945;DHT22;10134;50.952;6.930;2023-02-28T18:11:51;6.10;67.80
19945;DHT22;10134;50.952;6.930;2023-02-28T18:14:20;6.10;68.70
19945;DHT22;10134;50.952;6.930;2023-02-28T18:16:50;6.00;69.20
19945;DHT22;10134;50.952;6.930;2023-02-28T18:19:17;6.00;70.20
19945;DHT22;10134;50.952;6.930;2023-02-28T18:21:47;6.00;69.70
19945;DHT22;10134;50.952;6.930;2023-02-28T18:24:16;6.00;70.30